Latest Weather Observations for Cooma Airport

IDN60901

Issued at 12:21 pm EST Sunday 28 August 2016 (issued every 10 minutes, with the page automatically refreshed every 10 minutes)

About weather observations | Map of Canberra area stations | Latest observations for Canberra area | Other Formats
Station Details ID: 070217 Name: COOMA AIRPORT AWS Lat: -36.29 Lon: 148.97 Height: 930.0 m
Data from the previous 72 hours. | See also: Recent months at Cooma Airport
Date/Time
EST
Temp
°C
App
Temp
°C
Dew
Point
°C
Rel
Hum
%
Delta-T
°C
Wind Press
QNH
hPa
Press
MSL
hPa
Rain since
9am
mm
Dir  Spd
km/h
Gust
km/h
Spd
kts
Gust
kts
28/12:00pm 9.8 1.6 -1.0 47 4.5 W 32 41 17 22 1021.1 1022.4 0.0
28/11:30am 9.9 2.2 -0.3 49 4.3 W 30 41 16 22 1021.3 1022.5 0.0
28/11:00am 9.7 1.7 0.1 51 4.1 WSW 32 44 17 24 1021.6 1022.8 0.0
28/10:30am 8.6 1.7 0.1 55 3.6 WSW 26 35 14 19 1021.5 1022.7 0.0
28/10:00am 7.9 1.7 -0.1 57 3.3 WSW 22 28 12 15 1021.6 1022.8 0.0
28/09:30am 7.8 2.3 0.5 60 3.1 WSW 19 28 10 15 1021.4 1022.6 0.0
28/09:00am 6.9 2.4 -0.1 61 2.9 WSW 13 19 7 10 1021.6 1022.8 0.0
28/08:30am 6.0 4.1 0.3 67 2.4 CALM 0 0 0 0 1021.7 1023.0 0.0
28/08:00am 4.9 2.8 -0.9 66 2.3 CALM 0 0 0 0 1021.5 1022.7 0.0
28/07:30am 4.4 1.1 -1.2 67 2.2 WSW 6 11 3 6 1021.0 1022.3 0.0
28/07:00am 4.3 0.9 -1.9 64 2.4 WNW 6 9 3 5 1021.0 1022.3 0.0
28/06:30am 4.3 0.3 -1.9 64 2.4 NNW 9 17 5 9 1020.7 1022.0 0.0
28/06:00am 4.0 -0.8 -2.2 64 2.3 NNW 13 17 7 9 1020.5 1021.7 0.0
28/05:30am 4.6 -0.2 -2.3 61 2.6 NW 13 19 7 10 1020.3 1021.5 0.0
28/05:00am 4.6 -2.3 -2.5 60 2.7 WNW 24 35 13 19 1019.8 1021.1 0.0
28/04:30am 4.6 -3.8 -2.5 60 2.7 WNW 32 41 17 22 1019.1 1020.3 0.0
28/04:20am 4.7 -2.1 -2.2 61 2.6 WNW 24 46 13 25 1018.8 1020.1 0.0
28/04:00am 4.8 -0.4 -2.5 59 2.8 NNW 15 28 8 15 1018.7 1019.9 0.0
28/03:30am 3.7 0.0 -2.9 62 2.4 WSW 7 9 4 5 1019.0 1020.2 0.0
28/03:00am 4.0 0.5 -3.0 60 2.6 ESE 6 11 3 6 1018.7 1019.9 0.0
28/02:30am 3.2 -0.5 -2.7 65 2.2 ENE 7 11 4 6 1019.1 1020.3 0.0
28/02:00am 3.6 -1.5 -2.3 65 2.2 NW 15 26 8 14 1019.5 1020.7 0.0
28/01:30am 4.0 -1.6 -2.8 61 2.5 NW 17 28 9 15 1019.6 1020.8 0.0
28/01:00am 3.4 -1.0 -2.7 64 2.3 NW 11 20 6 11 1019.9 1021.2 0.0
28/12:30am 2.7 -2.1 -2.2 70 1.8 N 13 20 7 11 1019.9 1021.2 0.0
28/12:00am 3.4 -3.8 -2.1 67 2.1 NW 26 39 14 21 1019.4 1020.6 0.0
 
Date/Time
EST
Temp
°C
App
Temp
°C
Dew
Point
°C
Rel
Hum
%
Delta-T
°C
Wind Press
QNH
hPa
Press
MSL
hPa
Rain since
9am
mm
Dir  Spd
km/h
Gust
km/h
Spd
kts
Gust
kts
27/11:30pm 3.6 -3.6 -2.1 66 2.2 NW 26 35 14 19 1019.5 1020.7 0.0
27/11:00pm 3.8 -4.2 -2.2 65 2.3 NW 30 44 16 24 1019.3 1020.5 0.0
27/10:35pm 4.1 -3.1 -1.7 66 2.2 NW 26 46 14 25 1019.3 1020.5 0.0
27/10:30pm 4.0 -2.8 -1.8 66 2.2 NNW 24 37 13 20 1019.4 1020.6 0.0
27/10:00pm 4.1 -2.7 -2.1 64 2.4 NW 24 33 13 18 1020.4 1021.6 0.0
27/09:30pm 4.0 -3.6 -1.8 66 2.2 WNW 28 39 15 21 1020.3 1021.5 0.0
27/09:00pm 3.9 -2.1 -1.5 68 2.1 NW 20 28 11 15 1020.3 1021.5 0.0
27/08:30pm 3.9 -1.6 -2.1 65 2.3 NW 17 24 9 13 1020.4 1021.6 0.0
27/08:00pm 4.0 -2.1 -2.4 63 2.4 NW 20 28 11 15 1019.7 1020.9 0.0
27/07:30pm 4.4 -1.1 -2.4 61 2.6 NW 17 26 9 14 1019.4 1020.6 0.0
27/07:00pm 5.1 -1.7 -1.6 62 2.6 NW 24 35 13 19 1019.5 1020.7 0.0
27/06:30pm 5.3 -1.1 -1.4 62 2.6 NW 22 28 12 15 1019.2 1020.4 0.0
27/06:00pm 6.0 0.0 -1.6 58 3.0 NW 20 30 11 16 1018.8 1020.1 0.0
27/05:30pm 7.0 1.1 -1.9 53 3.5 NW 19 30 10 16 1018.7 1019.9 0.0
27/05:00pm 8.6 3.0 -2.6 45 4.4 NW 17 26 9 14 1018.6 1019.8 0.0
27/04:30pm 9.6 3.3 -3.7 39 5.2 WNW 20 26 11 14 1018.6 1019.8 0.0
27/04:00pm 10.3 3.9 -4.9 34 5.8 WNW 20 28 11 15 1018.8 1020.1 0.0
27/03:30pm 11.2 4.8 -4.9 32 6.2 WNW 20 32 11 17 1018.5 1019.7 0.0
27/03:00pm 11.6 5.2 -4.9 31 6.4 NW 20 30 11 16 1018.4 1019.6 0.0
27/02:30pm 12.1 5.7 -4.9 30 6.6 WNW 20 30 11 16 1018.6 1019.8 0.0
27/02:00pm 12.0 5.4 -7.4 25 7.1 WNW 20 28 11 15 1018.7 1019.9 0.0
27/01:30pm 12.5 5.9 -6.5 26 7.2 NW 20 28 11 15 1018.3 1019.5 0.0
27/01:00pm 12.1 7.3 -5.8 28 6.8 WSW 11 22 6 12 1018.5 1019.7 0.0
27/12:30pm 11.3 7.5 -1.1 42 5.2 NE 9 13 5 7 1019.1 1020.3 0.0
27/12:00pm 11.2 7.6 0.9 49 4.5 NE 9 15 5 8 1019.6 1020.8 0.0
27/11:30am 10.0 5.9 0.1 50 4.2 NE 11 15 6 8 1020.0 1021.3 0.0
27/11:00am 8.1 3.2 -0.6 54 3.6 NE 15 19 8 10 1020.4 1021.6 0.0
27/10:30am 6.8 1.7 0.5 64 2.6 NE 17 20 9 11 1020.6 1021.8 0.0
27/10:00am 5.7 0.6 0.7 70 2.1 NE 17 20 9 11 1020.7 1022.0 0.0
27/09:30am 3.9 -0.5 0.2 77 1.5 NE 13 17 7 9 1021.0 1022.3 0.0
27/09:00am 2.0 -2.5 -0.4 84 0.9 NE 13 15 7 8 1021.1 1022.4 0.0
27/08:30am 0.5 -4.1 -1.4 87 0.7 NE 13 15 7 8 1021.1 1022.4 0.0
27/08:00am -0.6 -4.2 -1.9 91 0.4 NNE 7 9 4 5 1020.9 1022.2 0.0
27/07:30am -2.2 -6.2 -2.3 99 -0.1 N 9 11 5 6 1020.8 1022.1 0.0
27/07:00am -5.0 -8.1 -5.7 95 0.0 NNE 2 6 1 3 1020.7 1022.0 0.0
27/06:30am -5.3 -10.5 -5.7 97 -0.1 NNE 13 13 7 7 1020.4 1021.6 0.0
27/06:00am -5.3 -9.7 -5.8 96 -0.1 NE 9 11 5 6 1020.3 1021.5 0.0
27/05:30am -5.2 -9.2 -5.7 96 -0.1 ENE 7 9 4 5 1020.2 1021.4 0.0
27/05:00am -5.2 -9.5 -5.3 99 -0.2 N 9 11 5 6 1020.2 1021.4 0.0
27/04:30am -5.4 -9.5 -6.2 94 0.0 NNE 7 9 4 5 1020.2 1021.4 0.0
27/04:00am -5.7 -9.6 -6.5 94 0.0 N 6 9 3 5 1020.2 1021.4 0.0
27/03:30am -4.7 -7.3 -5.2 96 0.0 CALM 0 0 0 0 1020.3 1021.5 0.0
27/03:00am -4.8 -7.5 -5.8 93 0.1 CALM 0 0 0 0 1020.5 1021.7 0.0
27/02:30am -4.5 -7.1 -5.3 94 0.1 CALM 0 0 0 0 1020.4 1021.6 0.0
27/02:00am -4.7 -7.4 -5.7 93 0.1 CALM 0 0 0 0 1020.6 1021.8 0.0
27/01:30am -4.6 -7.3 -5.7 92 0.2 CALM 0 0 0 0 1020.7 1022.0 0.0
27/01:00am -4.2 -6.8 -5.0 94 0.1 CALM 0 6 0 3 1020.8 1022.1 0.0
27/12:30am -3.5 -6.1 -4.5 93 0.2 CALM 0 0 0 0 1020.8 1022.1 0.0
27/12:00am -3.7 -6.7 -4.8 92 0.2 NE 2 4 1 2 1020.7 1022.0 0.0
 
Date/Time
EST
Temp
°C
App
Temp
°C
Dew
Point
°C
Rel
Hum
%
Delta-T
°C
Wind Press
QNH
hPa
Press
MSL
hPa
Rain since
9am
mm
Dir  Spd
km/h
Gust
km/h
Spd
kts
Gust
kts
26/11:30pm -2.9 -5.8 -4.2 91 0.3 WSW 2 6 1 3 1020.8 1022.1 0.0
26/11:00pm -1.7 -4.9 -3.7 86 0.6 WNW 4 6 2 3 1020.8 1022.1 0.0
26/10:30pm -2.4 -6.1 -4.6 85 0.6 ENE 6 7 3 4 1020.7 1022.0 0.0
26/10:00pm -0.4 -4.0 -3.3 81 1.0 SW 6 9 3 5 1020.4 1021.6 0.0
26/09:30pm -1.2 -5.0 -3.5 84 0.7 SSW 7 9 4 5 1020.3 1021.5 0.0
26/09:00pm -0.7 -3.1 -3.5 81 0.9 CALM 0 0 0 0 1020.0 1021.3 0.0
26/08:30pm 1.2 -2.4 -2.4 77 1.4 S 7 9 4 5 1019.6 1020.8 0.0
26/08:00pm 0.5 -2.1 -2.0 83 0.9 SSW 2 9 1 5 1019.4 1020.6 0.0
26/07:30pm -0.1 -2.3 -1.7 89 0.6 CALM 0 0 0 0 1019.3 1020.5 0.0
26/07:00pm 0.9 -1.2 -1.0 87 0.7 CALM 0 0 0 0 1019.2 1020.4 0.0
26/06:30pm 2.1 -0.1 -1.2 79 1.3 CALM 0 0 0 0 1018.7 1019.9 0.0
26/06:00pm 4.3 2.1 -1.3 67 2.2 CALM 0 0 0 0 1018.4 1019.6 0.0
26/05:30pm 6.6 3.7 -0.8 59 3.0 SSE 4 7 2 4 1018.2 1019.4 0.0
26/05:00pm 8.1 4.8 0.1 57 3.3 SSW 7 9 4 5 1018.1 1019.3 0.0
26/04:30pm 8.8 5.6 -0.5 52 3.9 SSW 6 9 3 5 1017.9 1019.0 0.0
26/04:00pm 8.9 5.6 -1.2 49 4.1 N 6 11 3 6 1017.6 1018.8 0.0
26/03:30pm 8.4 4.9 -1.4 50 4.0 SSE 7 13 4 7 1017.6 1018.8 0.0
26/03:00pm 8.8 5.4 -0.5 52 3.9 NE 7 13 4 7 1017.5 1018.7 0.0
26/02:30pm 8.6 5.4 0.8 58 3.3 E 7 11 4 6 1017.5 1018.7 0.0
26/02:00pm 8.7 6.0 0.2 55 3.6 WNW 4 9 2 5 1017.8 1018.9 0.0
26/01:30pm 7.0 3.2 -0.7 58 3.1 SE 9 19 5 10 1017.9 1019.0 0.0
26/01:00pm 6.8 2.9 -1.6 55 3.3 S 9 15 5 8 1018.1 1019.3 0.0
26/12:30pm 7.8 3.9 1.0 62 2.9 WSW 11 15 6 8 1018.5 1019.7 0.0
26/12:00pm 6.2 1.8 0.1 65 2.5 SSW 13 19 7 10 1018.8 1020.1 0.0
26/11:30am 5.3 0.4 -0.5 66 2.3 SSW 15 20 8 11 1019.1 1020.3 0.0
26/11:00am 5.8 0.6 0.4 68 2.2 SW 17 24 9 13 1019.2 1020.4 0.0
26/10:30am 5.3 0.2 0.7 72 1.9 SSW 17 28 9 15 1019.2 1020.4 0.0
26/10:00am 4.5 -1.0 0.3 74 1.7 S 19 24 10 13 1019.3 1020.5 0.0
26/09:30am 4.1 -1.9 1.0 80 1.3 SSW 22 33 12 18 1019.2 1020.4 0.0
26/09:00am 3.3 -1.4 1.2 86 0.9 SSW 15 20 8 11 1019.2 1020.4 2.8
26/08:30am 2.9 -2.5 1.4 90 0.6 SW 19 22 10 12 1019.0 1020.2 2.8
26/08:00am 2.0 -2.3 1.0 93 0.4 SW 13 17 7 9 1018.7 1019.9 1.4
26/07:30am 1.0 -3.1 0.1 94 0.3 SW 11 15 6 8 1018.4 1019.6 1.4
26/07:00am 0.9 -4.9 -0.2 92 0.4 SW 20 24 11 13 1018.0 1019.2 1.4
26/06:30am 0.9 -4.7 0.2 95 0.3 SW 19 22 10 12 1017.4 1018.6 1.4
26/06:00am 0.8 -5.0 0.2 96 0.2 SW 20 26 11 14 1017.0 1018.1 1.4
26/05:30am 0.5 -3.9 0.2 98 0.1 SW 13 17 7 9 1017.0 1018.1 1.4
26/05:00am 0.7 -3.7 0.6 99 0.0 SW 13 15 7 8 1016.7 1017.8 1.4
26/04:30am 0.7 -3.7 0.6 99 0.0 SW 13 15 7 8 1016.3 1017.5 1.4
26/04:00am 0.9 -4.2 0.6 98 0.1 SW 17 20 9 11 1016.1 1017.3 1.4
26/03:30am 0.7 -4.5 0.4 98 0.1 SW 17 19 9 10 1016.1 1017.3 1.4
26/03:00am 0.6 -3.8 0.3 98 0.1 SW 13 15 7 8 1016.0 1017.1 1.4
26/02:43am 0.5 -2.8 0.4 99 0.0 SW 7 9 4 5 1016.1 1017.3 1.4
26/02:30am 0.5 -3.5 0.4 99 0.0 SW 11 15 6 8 1016.1 1017.3 1.4
26/02:14am 0.6 -3.8 0.3 98 0.1 SW 13 15 7 8 1015.9 1017.0 1.4
26/02:02am 0.7 -3.7 0.4 98 0.1 SW 13 15 7 8 1015.9 1017.0 1.4
26/02:00am 0.6 -3.8 0.5 99 0.0 SW 13 15 7 8 1015.9 1017.0 1.4
26/01:30am 0.5 -4.3 0.4 99 0.0 SW 15 17 8 9 1015.9 1017.0 1.4
26/01:22am 0.3 -4.1 0.2 99 0.0 SSW 13 17 7 9 1015.9 1017.0 1.4
26/01:00am -0.2 -4.7 -0.3 99 0.0 SW 13 15 7 8 1015.9 1017.0 1.4
26/12:30am -1.2 -6.6 -1.3 99 0.0 SW 17 17 9 9 1015.5 1016.6 1.4
26/12:00am -0.3 -5.6 -0.9 96 0.2 SSW 17 20 9 11 1015.3 1016.5 1.4
 
Date/Time
EST
Temp
°C
App
Temp
°C
Dew
Point
°C
Rel
Hum
%
Delta-T
°C
Wind Press
QNH
hPa
Press
MSL
hPa
Rain since
9am
mm
Dir  Spd
km/h
Gust
km/h
Spd
kts
Gust
kts
25/11:30pm -0.2 -6.4 -0.3 99 0.0 SW 22 26 12 14 1015.1 1016.2 1.4
25/11:00pm 0.5 -6.8 0.1 97 0.2 SW 28 33 15 18 1014.8 1015.9 1.4
25/10:30pm 0.3 -6.6 0.2 99 0.0 SW 26 32 14 17 1014.8 1015.9 1.4
25/10:00pm 0.6 -5.9 0.5 99 0.0 SW 24 28 13 15 1014.9 1016.0 1.4
25/09:30pm 0.7 -5.4 0.6 99 0.0 SW 22 26 12 14 1014.8 1015.9 1.4
25/09:00pm 0.8 -4.3 0.7 99 0.0 SW 17 20 9 11 1014.9 1016.0 1.4
25/08:30pm 0.7 -4.0 0.6 99 0.0 WSW 15 20 8 11 1014.6 1015.7 1.4
25/08:00pm 0.7 -3.3 0.6 99 0.0 W 11 13 6 7 1014.5 1015.6 1.4
25/07:30pm 0.6 -3.4 0.5 99 0.0 WSW 11 13 6 7 1014.4 1015.5 1.4
25/07:12pm 0.4 -3.6 0.3 99 0.0 WSW 11 13 6 7 1014.2 1015.4 1.2
25/07:07pm 0.4 -4.0 0.3 99 0.0 WSW 13 15 7 8 1014.2 1015.4 1.2
25/07:00pm 0.4 -4.0 0.3 99 0.0 WSW 13 15 7 8 1014.2 1015.4 1.2
25/06:30pm 0.7 -5.0 0.6 99 0.0 SW 20 28 11 15 1013.7 1014.8 1.0
25/06:03pm 1.0 -6.2 0.9 99 0.0 SSW 28 35 15 19 1012.9 1014.0 0.4
25/06:00pm 1.1 -6.1 1.0 99 0.0 SSW 28 33 15 18 1012.9 1014.0 0.4
25/05:51pm 1.3 -5.4 1.2 99 0.0 SSW 26 32 14 17 1012.7 1013.8 0.0
25/05:30pm 1.8 -6.3 0.8 93 0.4 S 33 43 18 23 1012.2 1013.2 0.0
25/05:00pm 3.1 -7.6 0.2 81 1.2 SSW 46 56 25 30 1011.1 1012.1 0.0
25/04:51pm 4.5 -2.5 -0.5 70 2.0 S 26 52 14 28 1010.6 1011.7 0.0
25/04:30pm 7.1 1.8 -3.4 47 4.0 S 15 19 8 10 1010.4 1011.4 0.0
25/04:00pm 7.8 2.7 -2.2 49 4.0 SW 15 17 8 9 1010.2 1011.2 0.0
25/03:30pm 7.1 1.3 -1.3 55 3.4 SSW 19 24 10 13 1010.0 1011.0 0.0
25/03:00pm 7.0 1.2 -1.7 54 3.5 SSW 19 24 10 13 1009.8 1010.8 0.0
25/02:30pm 7.9 3.2 -2.1 49 4.0 SSW 13 20 7 11 1009.8 1010.8 0.0
25/02:00pm 7.8 1.8 -1.2 53 3.7 SW 20 28 11 15 1009.7 1010.6 0.0
25/01:30pm 7.5 2.6 -0.7 56 3.4 SW 15 24 8 13 1009.5 1010.5 0.0
25/01:00pm 6.4 -0.3 -1.0 59 3.0 SSW 24 33 13 18 1009.8 1010.8 0.0
25/12:30pm 6.9 1.7 -0.1 61 2.9 SSW 17 26 9 14 1010.1 1011.1 0.0

Latest Capital City Observations: Canberra | Sydney | Melbourne | Brisbane | Adelaide | Perth | Hobart | Darwin

Other Formats:

Comma delimited format used in spreadsheet applications
http://www.bom.gov.au/fwo/IDN60903/IDN60903.94921.axf

JavaScript Object Notation format (JSON) in row-major order
http://www.bom.gov.au/fwo/IDN60903/IDN60903.94921.json